createdAt,value
2024-01-05T00:09:51.958Z,4.69
2024-01-05T00:25:18.072Z,4.69
2024-01-05T00:40:43.025Z,4.69
2024-01-05T00:56:08.051Z,3.84
2024-01-05T01:11:32.993Z,3.84
2024-01-05T01:26:57.944Z,3.84
2024-01-05T01:42:23.028Z,3.84
2024-01-05T01:57:47.927Z,2.98
2024-01-05T02:13:12.894Z,2.45
2024-01-05T02:28:37.919Z,2.98
2024-01-05T02:44:02.913Z,2.98
2024-01-05T02:59:27.917Z,2.13
2024-01-05T03:14:52.907Z,2.13
2024-01-05T03:30:17.969Z,1.27
2024-01-05T03:45:42.926Z,1.78
2024-01-05T04:01:07.920Z,1.78
2024-01-05T04:16:32.857Z,1.41
2024-01-05T04:31:57.827Z,1.41
2024-01-05T04:47:22.868Z,1.41
2024-01-05T05:02:47.886Z,1.41
2024-01-05T05:18:12.975Z,1.41
2024-01-05T05:33:37.948Z,1.01
2024-01-05T05:49:02.992Z,1.01
2024-01-05T06:04:27.910Z,1.01
2024-01-05T06:19:52.827Z,1.01
2024-01-05T06:35:17.804Z,1.01
2024-01-05T06:50:42.900Z,1.01
2024-01-05T07:06:07.789Z,1.01
2024-01-05T07:21:32.836Z,1.47
2024-01-05T07:36:57.789Z,1.01
2024-01-05T07:52:22.724Z,0.60
2024-01-05T08:07:47.780Z,0.60
2024-01-05T08:23:12.748Z,0.60
2024-01-05T08:38:37.672Z,0.60
2024-01-05T08:54:02.694Z,1.01
2024-01-05T09:09:27.753Z,1.01
2024-01-05T09:24:52.685Z,0.60
2024-01-05T09:40:17.659Z,0.60
2024-01-05T09:55:42.637Z,0.60
2024-01-05T10:11:07.595Z,0.60
2024-01-05T10:26:32.618Z,1.47
2024-01-05T10:41:57.648Z,1.88
2024-01-05T10:57:22.761Z,1.88
2024-01-05T11:12:47.660Z,1.88
2024-01-05T11:28:12.606Z,3.21
2024-01-05T11:43:37.580Z,2.75
2024-01-05T11:59:02.581Z,3.62
2024-01-05T12:14:27.534Z,3.62
2024-01-05T12:29:53.601Z,3.62
2024-01-05T12:45:18.551Z,4.00
2024-01-05T13:00:44.800Z,4.00
2024-01-05T13:16:09.584Z,4.00
2024-01-05T13:31:34.717Z,4.00
2024-01-05T13:46:59.590Z,4.00
2024-01-05T14:02:24.519Z,4.00
2024-01-05T14:17:49.537Z,4.00
2024-01-05T14:33:14.533Z,4.00
2024-01-05T14:48:39.702Z,4.00
2024-01-05T15:04:04.646Z,3.50
2024-01-05T15:19:29.608Z,4.36
2024-01-05T15:34:54.525Z,4.86
2024-01-05T15:50:19.493Z,4.86
2024-01-05T16:05:44.499Z,4.86
2024-01-05T16:21:09.445Z,4.86
2024-01-05T16:36:34.431Z,4.86
2024-01-05T16:51:59.465Z,4.86
2024-01-05T17:07:24.358Z,5.35
2024-01-05T17:22:49.406Z,4.86
2024-01-05T17:38:14.410Z,4.86
2024-01-05T17:53:39.450Z,4.86
2024-01-05T18:09:04.438Z,4.00
2024-01-05T18:24:29.592Z,4.00
2024-01-05T18:39:54.454Z,4.00
2024-01-05T18:55:19.344Z,4.00
2024-01-05T19:10:45.345Z,3.13
2024-01-05T19:26:10.350Z,3.13
2024-01-05T19:41:35.327Z,3.62
2024-01-05T19:57:00.340Z,3.62
2024-01-05T20:12:25.351Z,3.21
2024-01-05T20:27:50.413Z,3.21
2024-01-05T20:43:15.309Z,2.79
2024-01-05T20:58:42.424Z,2.79
2024-01-05T21:14:05.304Z,3.22
2024-01-05T21:29:31.252Z,3.22
2024-01-05T21:44:56.276Z,2.79
2024-01-05T22:00:21.281Z,3.21
2024-01-05T22:15:46.191Z,3.21
2024-01-05T22:31:11.376Z,3.62
2024-01-05T22:46:36.174Z,3.62
2024-01-05T23:02:01.280Z,3.62
2024-01-05T23:17:26.234Z,3.62
2024-01-05T23:32:51.209Z,3.13
2024-01-05T23:48:16.313Z,4.00
